createdAt,value
2023-01-10T00:01:52.918Z,38.50
2023-01-10T00:04:21.143Z,38.70
2023-01-10T00:06:49.143Z,38.70
2023-01-10T00:09:18.483Z,38.70
2023-01-10T00:12:04.125Z,38.50
2023-01-10T00:14:34.880Z,38.90
2023-01-10T00:17:03.067Z,38.80
2023-01-10T00:19:31.290Z,39.10
2023-01-10T00:22:05.643Z,38.90
2023-01-10T00:24:34.999Z,38.80
2023-01-10T00:27:03.042Z,39.50
2023-01-10T00:29:31.828Z,39.30
2023-01-10T00:31:59.869Z,39.20
2023-01-10T00:34:27.973Z,39.30
2023-01-10T00:36:55.909Z,39.10
2023-01-10T00:39:27.282Z,39.60
2023-01-10T00:42:14.258Z,39.60
2023-01-10T00:44:42.219Z,39.40
2023-01-10T00:47:10.233Z,39.60
2023-01-10T00:49:38.239Z,39.50
2023-01-10T00:52:06.493Z,39.70
2023-01-10T00:54:34.928Z,39.50
2023-01-10T00:57:04.264Z,39.90
2023-01-10T00:59:32.205Z,40.00
2023-01-10T01:02:00.350Z,39.70
2023-01-10T01:04:28.385Z,40.00
2023-01-10T01:06:57.186Z,40.00
2023-01-10T01:09:26.295Z,39.90
2023-01-10T01:11:56.045Z,40.00
2023-01-10T01:14:26.250Z,40.00
2023-01-10T01:16:55.590Z,40.00
2023-01-10T01:19:23.839Z,39.50
2023-01-10T01:21:51.827Z,40.20
2023-01-10T01:24:21.342Z,40.00
2023-01-10T01:26:49.288Z,40.10
2023-01-10T01:29:18.116Z,40.30
2023-01-10T01:31:47.626Z,40.10
2023-01-10T01:34:15.885Z,40.30
2023-01-10T01:36:43.868Z,40.40
2023-01-10T01:39:11.996Z,40.20
2023-01-10T01:41:58.144Z,40.20
2023-01-10T01:44:31.389Z,40.60
2023-01-10T01:47:08.424Z,40.40
2023-01-10T01:49:40.578Z,40.70
2023-01-10T01:52:17.010Z,40.40
2023-01-10T01:54:45.099Z,40.80
2023-01-10T01:57:18.655Z,40.70
2023-01-10T01:59:49.506Z,41.00
2023-01-10T02:02:24.787Z,40.60
2023-01-10T02:04:58.609Z,40.90
2023-01-10T02:07:30.571Z,40.70
2023-01-10T02:10:04.799Z,40.70
2023-01-10T02:12:34.173Z,40.50
2023-01-10T02:15:04.439Z,40.80
2023-01-10T02:17:33.737Z,40.70
2023-01-10T02:20:04.893Z,41.00
2023-01-10T02:23:26.441Z,41.10
2023-01-10T02:26:22.413Z,40.70
2023-01-10T02:29:19.462Z,40.90
2023-01-10T02:32:35.500Z,41.00
2023-01-10T02:35:34.349Z,40.60
2023-01-10T02:38:10.920Z,41.00
2023-01-10T02:40:48.964Z,41.30
2023-01-10T02:43:21.086Z,41.30
2023-01-10T02:45:54.149Z,41.50
2023-01-10T02:48:23.697Z,41.50
2023-01-10T02:50:58.547Z,41.30
2023-01-10T02:53:31.086Z,41.20
2023-01-10T02:56:37.802Z,41.50
2023-01-10T03:00:03.435Z,41.60
2023-01-10T03:02:46.340Z,41.20
2023-01-10T03:05:27.654Z,41.40
2023-01-10T03:08:09.006Z,41.20
2023-01-10T03:10:44.209Z,41.40
2023-01-10T03:13:17.424Z,41.30
2023-01-10T03:15:47.012Z,41.20
2023-01-10T03:18:19.599Z,41.40
2023-01-10T03:20:52.768Z,40.90
2023-01-10T03:23:23.711Z,41.30
2023-01-10T03:25:53.565Z,41.60
2023-01-10T03:28:30.434Z,41.40
2023-01-10T03:31:03.354Z,41.50
2023-01-10T03:33:34.521Z,41.30
2023-01-10T03:36:16.651Z,41.00
2023-01-10T03:38:49.708Z,41.60
2023-01-10T03:41:31.651Z,41.10
2023-01-10T03:44:29.338Z,41.20
2023-01-10T03:47:05.884Z,41.50
2023-01-10T03:49:37.052Z,41.60
2023-01-10T03:52:08.375Z,41.40
2023-01-10T03:54:36.414Z,41.30
2023-01-10T03:57:04.641Z,41.80
2023-01-10T03:59:32.909Z,41.40
2023-01-10T04:02:01.103Z,41.90
2023-01-10T04:04:29.237Z,41.60
2023-01-10T04:06:57.223Z,42.30
2023-01-10T04:09:26.558Z,41.20
2023-01-10T04:11:54.535Z,42.10
2023-01-10T04:14:22.727Z,41.50
2023-01-10T04:16:50.955Z,41.70
2023-01-10T04:19:18.944Z,41.80
2023-01-10T04:21:46.928Z,41.80
2023-01-10T04:24:14.953Z,41.80
2023-01-10T04:26:44.758Z,41.60
2023-01-10T04:29:12.814Z,41.60
2023-01-10T04:31:41.059Z,41.90
2023-01-10T04:34:10.256Z,41.80
2023-01-10T04:36:38.323Z,41.70
2023-01-10T04:39:06.648Z,41.70
2023-01-10T04:41:34.869Z,42.50
2023-01-10T04:44:04.420Z,41.50
2023-01-10T04:46:33.269Z,42.00
2023-01-10T04:49:01.661Z,41.80
2023-01-10T04:51:30.001Z,41.60
2023-01-10T04:53:58.151Z,41.60
2023-01-10T04:56:27.015Z,41.90
2023-01-10T04:58:55.182Z,41.40
2023-01-10T05:01:27.049Z,41.80
2023-01-10T05:03:57.242Z,41.70
2023-01-10T05:06:25.838Z,41.50
2023-01-10T05:08:54.761Z,41.70
2023-01-10T05:11:23.083Z,41.20
2023-01-10T05:13:51.473Z,41.30
2023-01-10T05:16:19.615Z,41.70
2023-01-10T05:18:49.112Z,41.70
2023-01-10T05:21:17.663Z,41.70
2023-01-10T05:23:45.767Z,41.40
2023-01-10T05:26:16.275Z,41.50
2023-01-10T05:28:45.433Z,41.90
2023-01-10T05:31:16.362Z,42.50
2023-01-10T05:33:47.772Z,42.10
2023-01-10T05:36:16.423Z,41.40
2023-01-10T05:38:44.770Z,41.80
2023-01-10T05:41:12.989Z,41.70
2023-01-10T05:43:41.368Z,41.80
2023-01-10T05:46:09.572Z,41.90
2023-01-10T05:48:37.748Z,42.10
2023-01-10T05:51:08.054Z,42.20
2023-01-10T05:53:36.149Z,42.10
2023-01-10T05:56:07.553Z,41.60
2023-01-10T05:58:35.874Z,40.50
2023-01-10T06:01:04.187Z,39.30
2023-01-10T06:03:32.361Z,38.50
2023-01-10T06:06:00.472Z,37.00
2023-01-10T06:08:30.146Z,39.00
2023-01-10T06:10:58.805Z,38.90
2023-01-10T06:13:27.149Z,38.20
2023-01-10T06:15:55.475Z,38.00
2023-01-10T06:18:23.615Z,38.30
2023-01-10T06:20:51.677Z,38.80
2023-01-10T06:23:19.770Z,39.10
2023-01-10T06:25:49.165Z,39.30
2023-01-10T06:28:17.447Z,39.60
2023-01-10T06:30:45.578Z,39.30
2023-01-10T06:33:14.743Z,39.40
2023-01-10T06:35:46.986Z,39.40
2023-01-10T06:38:15.705Z,39.20
2023-01-10T06:40:44.006Z,40.40
2023-01-10T06:43:13.811Z,39.50
2023-01-10T06:45:42.266Z,39.40
2023-01-10T06:48:10.837Z,38.60
2023-01-10T06:50:39.780Z,39.70
2023-01-10T06:53:08.927Z,39.60
2023-01-10T06:55:40.995Z,39.50
2023-01-10T06:58:10.215Z,39.50
2023-01-10T07:00:40.749Z,39.20
2023-01-10T07:03:11.810Z,39.40
2023-01-10T07:05:40.737Z,38.50
2023-01-10T07:08:18.637Z,39.10
2023-01-10T07:10:47.375Z,39.50
2023-01-10T07:13:15.903Z,39.20
2023-01-10T07:15:45.885Z,39.60
2023-01-10T07:18:14.532Z,39.30
2023-01-10T07:20:46.156Z,39.10
2023-01-10T07:23:14.640Z,39.30
2023-01-10T07:25:43.116Z,39.20
2023-01-10T07:28:11.892Z,38.90
2023-01-10T07:31:08.421Z,39.00
2023-01-10T07:33:39.827Z,39.10
2023-01-10T07:36:18.513Z,38.80
2023-01-10T07:38:47.394Z,38.70
2023-01-10T07:41:37.565Z,39.20
2023-01-10T07:44:07.249Z,39.00
2023-01-10T07:47:01.581Z,38.70
2023-01-10T07:49:30.279Z,38.80
2023-01-10T07:51:58.701Z,38.80
2023-01-10T07:54:27.342Z,39.20
2023-01-10T07:56:58.621Z,38.80
2023-01-10T07:59:27.422Z,39.70
2023-01-10T08:01:56.171Z,39.40
2023-01-10T08:04:26.331Z,38.90
2023-01-10T08:06:56.141Z,38.70
2023-01-10T08:09:24.885Z,39.10
2023-01-10T08:11:53.721Z,39.00
2023-01-10T08:14:22.123Z,38.90
2023-01-10T08:16:51.020Z,38.80
2023-01-10T08:19:19.293Z,38.80
2023-01-10T08:21:48.606Z,39.10
2023-01-10T08:24:16.635Z,38.50
2023-01-10T08:26:44.577Z,39.20
2023-01-10T08:29:12.628Z,39.30
2023-01-10T08:31:41.962Z,39.10
2023-01-10T08:34:09.994Z,38.90
2023-01-10T08:36:37.929Z,38.90
2023-01-10T08:39:07.330Z,38.80
2023-01-10T08:41:35.416Z,38.80
2023-01-10T08:44:03.394Z,39.20
2023-01-10T08:46:31.425Z,39.20
2023-01-10T08:48:59.496Z,39.10
2023-01-10T08:51:27.447Z,39.30
2023-01-10T08:53:55.672Z,38.60
2023-01-10T08:56:25.017Z,38.10
2023-01-10T08:58:53.127Z,37.70
2023-01-10T09:01:21.312Z,37.70
2023-01-10T09:03:49.704Z,37.40
2023-01-10T09:06:17.675Z,36.70
2023-01-10T09:08:45.738Z,36.80
2023-01-10T09:11:13.810Z,37.00
2023-01-10T09:13:43.224Z,37.40
2023-01-10T09:16:11.457Z,37.10
2023-01-10T09:18:39.552Z,37.30
2023-01-10T09:21:07.704Z,36.90
2023-01-10T09:23:37.158Z,37.00
2023-01-10T09:26:05.433Z,36.60
2023-01-10T09:28:33.713Z,36.30
2023-01-10T09:31:04.371Z,36.00
2023-01-10T09:33:45.713Z,35.80
2023-01-10T09:36:15.620Z,35.20
2023-01-10T09:38:44.153Z,34.90
2023-01-10T09:41:48.943Z,34.50
2023-01-10T09:44:22.466Z,34.10
2023-01-10T09:47:08.487Z,32.80
2023-01-10T09:49:50.597Z,33.60
2023-01-10T09:52:23.677Z,33.60
2023-01-10T09:54:56.343Z,32.70
2023-01-10T09:57:25.184Z,33.20
2023-01-10T09:59:54.560Z,33.10
2023-01-10T10:02:32.302Z,33.10
2023-01-10T10:05:14.488Z,32.60
2023-01-10T10:07:42.541Z,32.80
2023-01-10T10:10:18.647Z,32.70
2023-01-10T10:12:57.420Z,32.60
2023-01-10T10:15:33.730Z,32.70
2023-01-10T10:18:17.837Z,32.20
2023-01-10T10:20:58.151Z,32.20
2023-01-10T10:23:53.258Z,32.40
2023-01-10T10:26:29.769Z,32.20
2023-01-10T10:29:20.833Z,32.20
2023-01-10T10:31:48.963Z,32.30
2023-01-10T10:34:29.389Z,31.90
2023-01-10T10:37:02.328Z,32.10
2023-01-10T10:39:38.509Z,31.50
2023-01-10T10:42:14.714Z,31.30
2023-01-10T10:44:48.327Z,31.70
2023-01-10T10:47:18.595Z,31.50
2023-01-10T10:49:53.617Z,31.50
2023-01-10T10:52:26.861Z,31.00
2023-01-10T10:54:55.812Z,31.20
2023-01-10T10:57:28.812Z,31.30
2023-01-10T10:59:58.235Z,31.10
2023-01-10T11:02:30.665Z,31.00
2023-01-10T11:05:04.459Z,31.00
2023-01-10T11:07:35.914Z,30.70
2023-01-10T11:10:18.565Z,30.60
2023-01-10T11:12:51.088Z,31.10
2023-01-10T11:15:42.062Z,30.70
2023-01-10T11:18:14.527Z,31.10
2023-01-10T11:20:58.632Z,30.60
2023-01-10T11:23:37.833Z,31.00
2023-01-10T11:26:06.713Z,31.20
2023-01-10T11:28:35.389Z,31.20
2023-01-10T11:31:04.504Z,30.50
2023-01-10T11:33:36.082Z,31.50
2023-01-10T11:36:08.800Z,31.40
2023-01-10T11:38:37.367Z,30.90
2023-01-10T11:41:07.415Z,31.60
2023-01-10T11:43:38.374Z,31.60
2023-01-10T11:46:14.395Z,31.50
2023-01-10T11:51:39.520Z,31.40
2023-01-10T11:54:12.898Z,31.80
2023-01-10T11:56:43.161Z,31.50
2023-01-10T11:59:15.535Z,31.50
2023-01-10T12:01:48.038Z,31.20
2023-01-10T12:04:16.972Z,31.40
2023-01-10T12:06:49.737Z,31.10
2023-01-10T12:09:42.544Z,31.10
2023-01-10T12:12:23.809Z,30.90
2023-01-10T12:14:53.233Z,31.20
2023-01-10T12:17:26.674Z,30.90
2023-01-10T12:19:58.486Z,30.70
2023-01-10T12:22:33.262Z,30.80
2023-01-10T12:25:05.133Z,30.90
2023-01-10T12:27:34.360Z,30.60
2023-01-10T12:30:08.198Z,30.60
2023-01-10T12:32:44.024Z,30.20
2023-01-10T12:35:19.459Z,30.90
2023-01-10T12:37:54.796Z,30.80
2023-01-10T12:40:32.127Z,30.80
2023-01-10T12:43:25.868Z,30.90
2023-01-10T12:45:59.720Z,30.80
2023-01-10T12:48:44.543Z,31.00
2023-01-10T12:51:18.457Z,30.90
2023-01-10T12:53:53.121Z,30.90
2023-01-10T12:56:21.899Z,31.10
2023-01-10T12:58:55.442Z,31.20
2023-01-10T13:01:30.549Z,30.80
2023-01-10T13:04:04.354Z,31.40
2023-01-10T13:06:35.141Z,30.90
2023-01-10T13:09:09.201Z,31.30
2023-01-10T13:11:46.385Z,31.30
2023-01-10T13:14:18.035Z,31.70
2023-01-10T13:16:53.900Z,31.80
2023-01-10T13:19:27.544Z,31.60
2023-01-10T13:22:22.653Z,31.50
2023-01-10T13:25:00.886Z,31.60
2023-01-10T13:27:33.442Z,32.00
2023-01-10T13:30:03.135Z,32.00
2023-01-10T13:32:35.165Z,31.70
2023-01-10T13:35:15.010Z,32.10
2023-01-10T13:37:45.130Z,32.10
2023-01-10T13:40:24.424Z,32.20
2023-01-10T13:43:34.236Z,32.20
2023-01-10T13:46:39.104Z,32.20
2023-01-10T13:49:50.041Z,32.20
2023-01-10T13:52:40.026Z,32.60
2023-01-10T13:55:35.705Z,32.30
2023-01-10T13:58:06.221Z,32.70
2023-01-10T14:01:07.835Z,32.70
2023-01-10T14:03:45.183Z,33.10
2023-01-10T14:06:31.823Z,32.80
2023-01-10T14:09:02.813Z,32.80
2023-01-10T14:11:53.199Z,33.20
2023-01-10T14:14:25.039Z,32.70
2023-01-10T14:16:56.824Z,32.70
2023-01-10T14:19:30.201Z,33.00
2023-01-10T14:22:01.551Z,32.20
2023-01-10T14:24:35.443Z,32.90
2023-01-10T14:27:05.433Z,33.30
2023-01-10T14:29:34.973Z,33.00
2023-01-10T14:32:31.203Z,33.00
2023-01-10T14:35:02.151Z,32.50
2023-01-10T14:37:37.356Z,32.80
2023-01-10T14:40:23.304Z,32.80
2023-01-10T14:42:58.348Z,32.50
2023-01-10T14:45:35.337Z,33.20
2023-01-10T14:48:30.106Z,32.70
2023-01-10T14:51:26.291Z,32.00
2023-01-10T14:54:01.107Z,33.10
2023-01-10T14:56:31.632Z,32.70
2023-01-10T14:59:00.984Z,33.70
2023-01-10T15:01:31.157Z,33.00
2023-01-10T15:03:59.219Z,32.70
2023-01-10T15:06:27.477Z,33.10
2023-01-10T15:09:03.021Z,32.80
2023-01-10T15:11:32.860Z,32.60
2023-01-10T15:14:08.253Z,33.00
2023-01-10T15:16:38.805Z,33.20
2023-01-10T15:19:06.997Z,32.90
2023-01-10T15:21:35.066Z,32.90
2023-01-10T15:24:30.564Z,33.10
2023-01-10T15:27:01.571Z,32.90
2023-01-10T15:29:31.079Z,33.10
2023-01-10T15:32:10.239Z,33.30
2023-01-10T15:34:39.617Z,33.30
2023-01-10T15:37:16.751Z,33.50
2023-01-10T15:39:48.286Z,33.80
2023-01-10T15:42:16.411Z,33.70
2023-01-10T15:44:52.287Z,34.00
2023-01-10T15:47:39.922Z,34.00
2023-01-10T15:50:28.479Z,34.00
2023-01-10T15:52:59.727Z,33.90
2023-01-10T15:55:44.976Z,34.10
2023-01-10T15:58:23.933Z,34.00
2023-01-10T16:00:54.696Z,33.80
2023-01-10T16:03:27.833Z,34.10
2023-01-10T16:05:59.127Z,34.20
2023-01-10T16:08:32.540Z,33.70
2023-01-10T16:11:04.214Z,34.00
2023-01-10T16:13:33.097Z,34.10
2023-01-10T16:16:05.266Z,34.60
2023-01-10T16:18:35.019Z,34.20
2023-01-10T16:21:06.786Z,33.90
2023-01-10T16:23:36.433Z,34.50
2023-01-10T16:26:08.365Z,34.50
2023-01-10T16:28:37.843Z,34.20
2023-01-10T16:31:11.560Z,34.30
2023-01-10T16:33:40.407Z,34.40
2023-01-10T16:36:16.849Z,34.50
2023-01-10T16:38:45.182Z,34.70
2023-01-10T16:41:33.067Z,34.30
2023-01-10T16:44:01.740Z,34.50
2023-01-10T16:46:31.351Z,34.60
2023-01-10T16:48:59.981Z,34.50
2023-01-10T16:51:30.234Z,34.80
2023-01-10T16:53:58.197Z,34.80
2023-01-10T16:56:28.356Z,34.70
2023-01-10T16:58:57.510Z,34.70
2023-01-10T17:01:30.797Z,34.70
2023-01-10T17:03:59.686Z,34.30
2023-01-10T17:06:28.610Z,33.40
2023-01-10T17:08:56.938Z,33.80
2023-01-10T17:11:30.446Z,32.60
2023-01-10T17:14:00.117Z,33.40
2023-01-10T17:16:28.216Z,33.20
2023-01-10T17:18:57.576Z,33.20
2023-01-10T17:21:26.683Z,33.30
2023-01-10T17:23:54.754Z,33.60
2023-01-10T17:26:23.416Z,33.70
2023-01-10T17:28:51.361Z,33.60
2023-01-10T17:31:20.338Z,32.50
2023-01-10T17:33:49.405Z,33.50
2023-01-10T17:36:19.540Z,33.70
2023-01-10T17:38:47.881Z,34.00
2023-01-10T17:41:15.901Z,33.50
2023-01-10T17:43:43.884Z,34.10
2023-01-10T17:46:12.588Z,34.20
2023-01-10T17:48:40.927Z,34.10
2023-01-10T17:51:10.284Z,34.40
2023-01-10T17:53:39.735Z,34.50
2023-01-10T17:56:08.897Z,34.80
2023-01-10T17:58:37.273Z,35.00
2023-01-10T18:01:05.366Z,35.00
2023-01-10T18:03:33.443Z,35.30
2023-01-10T18:06:01.596Z,34.70
2023-01-10T18:08:29.700Z,35.20
2023-01-10T18:11:02.349Z,35.70
2023-01-10T18:13:31.566Z,35.50
2023-01-10T18:16:00.623Z,35.30
2023-01-10T18:18:28.566Z,35.40
2023-01-10T18:21:00.966Z,35.70
2023-01-10T18:23:31.432Z,35.70
2023-01-10T18:26:03.638Z,36.20
2023-01-10T18:28:41.809Z,36.10
2023-01-10T18:31:12.972Z,36.10
2023-01-10T18:33:41.445Z,35.90
2023-01-10T18:36:15.292Z,35.50
2023-01-10T18:38:43.978Z,36.20
2023-01-10T18:41:13.436Z,35.40
2023-01-10T18:43:41.530Z,36.00
2023-01-10T18:46:13.062Z,36.00
2023-01-10T18:48:41.127Z,36.10
2023-01-10T18:51:12.194Z,36.40
2023-01-10T18:53:40.615Z,36.10
2023-01-10T18:56:10.099Z,36.50
2023-01-10T18:58:41.785Z,36.40
2023-01-10T19:01:12.120Z,35.80
2023-01-10T19:03:40.954Z,36.30
2023-01-10T19:06:12.580Z,36.40
2023-01-10T19:08:41.095Z,35.70
2023-01-10T19:11:15.414Z,35.90
2023-01-10T19:13:46.722Z,36.10
2023-01-10T19:16:16.813Z,36.20
2023-01-10T19:18:47.071Z,36.30
2023-01-10T19:21:16.023Z,36.20
2023-01-10T19:23:45.241Z,36.10
2023-01-10T19:26:14.130Z,36.00
2023-01-10T19:28:45.732Z,35.90
2023-01-10T19:31:16.977Z,35.10
2023-01-10T19:33:47.476Z,35.70
2023-01-10T19:36:16.734Z,35.80
2023-01-10T19:38:44.839Z,35.70
2023-01-10T19:41:14.039Z,35.50
2023-01-10T19:43:42.084Z,35.50
2023-01-10T19:46:13.483Z,35.50
2023-01-10T19:48:41.579Z,35.80
2023-01-10T19:51:12.711Z,36.10
2023-01-10T19:53:45.248Z,36.00
2023-01-10T19:56:18.322Z,36.10
2023-01-10T19:58:47.659Z,35.30
2023-01-10T20:01:20.740Z,34.70
2023-01-10T20:03:49.034Z,35.90
2023-01-10T20:06:21.557Z,35.50
2023-01-10T20:08:49.988Z,35.20
2023-01-10T20:11:19.860Z,35.70
2023-01-10T20:13:49.134Z,35.50
2023-01-10T20:16:22.069Z,35.40
2023-01-10T20:18:50.901Z,35.50
2023-01-10T20:21:20.508Z,35.00
2023-01-10T20:23:49.584Z,35.60
2023-01-10T20:26:20.485Z,35.40
2023-01-10T20:28:50.496Z,35.80
2023-01-10T20:31:22.433Z,35.50
2023-01-10T20:33:51.242Z,35.50
2023-01-10T20:36:21.741Z,35.50
2023-01-10T20:38:50.354Z,35.20
2023-01-10T20:41:21.174Z,35.60
2023-01-10T20:43:49.609Z,35.40
2023-01-10T20:46:21.686Z,35.50
2023-01-10T20:48:50.743Z,35.00
2023-01-10T20:51:21.664Z,36.30
2023-01-10T20:53:50.613Z,35.80
2023-01-10T20:56:23.230Z,35.20
2023-01-10T20:58:52.747Z,35.00
2023-01-10T21:01:33.749Z,34.60
2023-01-10T21:04:03.319Z,35.60
2023-01-10T21:06:31.314Z,35.50
2023-01-10T21:09:00.387Z,35.50
2023-01-10T21:11:28.691Z,35.20
2023-01-10T21:13:56.692Z,35.20
2023-01-10T21:16:26.179Z,35.20
2023-01-10T21:18:54.232Z,35.50
2023-01-10T21:21:23.574Z,35.00
2023-01-10T21:23:54.220Z,35.30
2023-01-10T21:26:22.455Z,35.60
2023-01-10T21:28:50.550Z,29.30
2023-01-10T21:31:20.818Z,28.50
2023-01-10T21:33:50.646Z,33.30
2023-01-10T21:36:18.894Z,30.50
2023-01-10T21:38:47.669Z,30.70
2023-01-10T21:41:38.077Z,30.60
2023-01-10T21:44:08.229Z,30.60
2023-01-10T21:46:36.780Z,30.40
2023-01-10T21:49:06.552Z,30.90
2023-01-10T21:51:34.802Z,30.90
2023-01-10T21:54:02.864Z,31.10
2023-01-10T21:56:30.897Z,31.20
2023-01-10T21:58:58.924Z,31.30
2023-01-10T22:01:26.851Z,31.20
2023-01-10T22:03:54.864Z,31.70
2023-01-10T22:06:24.265Z,31.60
2023-01-10T22:08:52.777Z,31.90
2023-01-10T22:11:20.960Z,32.40
2023-01-10T22:13:49.073Z,32.00
2023-01-10T22:16:17.100Z,32.40
2023-01-10T22:18:45.653Z,32.30
2023-01-10T22:21:15.309Z,32.90
2023-01-10T22:23:45.229Z,32.20
2023-01-10T22:26:15.254Z,33.00
2023-01-10T22:28:43.548Z,31.70
2023-01-10T22:31:11.549Z,33.20
2023-01-10T22:33:40.009Z,33.40
2023-01-10T22:36:14.074Z,33.10
2023-01-10T22:38:44.038Z,34.00
2023-01-10T22:41:15.509Z,33.90
2023-01-10T22:43:44.716Z,33.70
2023-01-10T22:46:15.434Z,33.70
2023-01-10T22:48:53.923Z,34.20
2023-01-10T22:51:23.812Z,33.70
2023-01-10T22:53:56.882Z,33.90
2023-01-10T22:56:25.348Z,33.40
2023-01-10T22:58:54.128Z,34.10
2023-01-10T23:01:24.804Z,34.20
2023-01-10T23:03:53.603Z,34.20
2023-01-10T23:06:21.901Z,33.10
2023-01-10T23:08:50.553Z,34.60
2023-01-10T23:11:22.107Z,35.00
2023-01-10T23:13:55.987Z,35.00
2023-01-10T23:16:28.734Z,35.10
2023-01-10T23:18:57.825Z,34.50
2023-01-10T23:21:28.647Z,35.20
2023-01-10T23:23:57.326Z,35.30
2023-01-10T23:26:26.877Z,34.40
2023-01-10T23:28:55.116Z,35.20
2023-01-10T23:31:25.927Z,35.30
2023-01-10T23:33:54.378Z,34.60
2023-01-10T23:36:23.847Z,35.10
2023-01-10T23:38:52.696Z,34.50
2023-01-10T23:41:21.680Z,34.80
2023-01-10T23:43:52.991Z,35.20
2023-01-10T23:46:24.443Z,35.50
2023-01-10T23:48:52.735Z,35.10
2023-01-10T23:51:20.939Z,35.20
2023-01-10T23:53:49.027Z,35.10
2023-01-10T23:56:17.405Z,35.40
2023-01-10T23:58:45.820Z,35.20
